Time,TemperatureF,DewpointF,PressureIn,WindDirection,WindDirectionDegrees,WindSpeedMPH,WindSpeedGustMPH,Humidity,HourlyPrecipIn,Conditions,Clouds,dailyrainin,SoftwareType,DateUTC
2013-06-20 00:02:00,56.0,35.0,-100.00,West,260,2.0,3.0,45,-99.99,,,-99.99,,2013-06-20 04:02:00,
2013-06-20 00:12:00,56.0,35.0,-100.00,West,260,2.0,3.0,45,-99.99,,,-99.99,,2013-06-20 04:12:00,
2013-06-20 00:23:00,56.0,35.0,-100.00,North,0,1.0,5.0,45,-99.99,,,-99.99,,2013-06-20 04:23:00,
2013-06-20 00:43:00,55.0,34.0,-100.00,NW,312,1.0,3.0,45,-99.99,,,-99.99,,2013-06-20 04:43:00,
2013-06-20 00:53:00,55.0,34.0,-100.00,NW,312,1.0,2.0,45,-99.99,,,-99.99,,2013-06-20 04:53:00,
2013-06-20 01:12:00,55.0,34.0,-100.00,NW,312,1.0,3.0,45,-99.99,,,-99.99,,2013-06-20 05:12:00,
2013-06-20 01:22:00,54.0,34.0,-100.00,North,0,1.0,2.0,45,-99.99,,,-99.99,,2013-06-20 05:22:00,
2013-06-20 01:53:00,54.0,33.0,-100.00,ESE,120,1.0,2.0,45,-99.99,,,-99.99,,2013-06-20 05:53:00,
2013-06-20 02:11:00,53.0,32.0,-100.00,ESE,120,1.0,2.0,45,-99.99,,,-99.99,,2013-06-20 06:11:00,
2013-06-20 02:34:00,53.0,49.0,-100.00,WSW,254,1.0,-999.0,87,-99.99,,,-99.99,,2013-06-20 06:34:00,
2013-06-20 02:43:00,52.0,49.0,-100.00,WSW,254,1.0,-999.0,88,-99.99,,,-99.99,,2013-06-20 06:43:00,
2013-06-20 02:53:00,52.0,49.0,-100.00,WSW,254,1.0,-999.0,89,-99.99,,,-99.99,,2013-06-20 06:53:00,
2013-06-20 03:01:00,52.0,49.0,-100.00,WSW,254,1.0,-999.0,90,-99.99,,,-99.99,,2013-06-20 07:01:00,
2013-06-20 03:12:00,52.0,49.0,-100.00,WSW,254,1.0,-999.0,90,-99.99,,,-99.99,,2013-06-20 07:12:00,
2013-06-20 03:23:00,52.0,48.0,-100.00,North,0,0.0,-999.0,88,-99.99,,,-99.99,,2013-06-20 07:23:00,
2013-06-20 03:34:00,51.0,48.0,-100.00,North,10,0.0,-999.0,89,-99.99,,,-99.99,,2013-06-20 07:34:00,
2013-06-20 03:44:00,51.0,48.0,-100.00,North,10,0.0,-999.0,89,-99.99,,,-99.99,,2013-06-20 07:44:00,
2013-06-20 03:52:00,51.0,48.0,-100.00,North,10,0.0,-999.0,89,-99.99,,,-99.99,,2013-06-20 07:52:00,
2013-06-20 04:02:00,51.0,48.0,-100.00,North,10,0.0,-999.0,89,-99.99,,,-99.99,,2013-06-20 08:02:00,
2013-06-20 04:11:00,51.0,48.0,-100.00,WSW,245,0.0,-999.0,90,-99.99,,,-99.99,,2013-06-20 08:11:00,
2013-06-20 04:22:00,51.0,48.0,-100.00,WSW,245,0.0,-999.0,90,-99.99,,,-99.99,,2013-06-20 08:22:00,
2013-06-20 04:34:00,51.0,49.0,-100.00,WSW,245,1.0,-999.0,93,-99.99,,,-99.99,,2013-06-20 08:34:00,
2013-06-20 04:43:00,51.0,48.0,-100.00,WNW,296,1.0,-999.0,90,-99.99,,,-99.99,,2013-06-20 08:43:00,
2013-06-20 04:53:00,51.0,48.0,-100.00,WNW,296,1.0,-999.0,90,-99.99,,,-99.99,,2013-06-20 08:53:00,
2013-06-20 05:02:00,50.0,48.0,-100.00,WNW,296,1.0,-999.0,92,-99.99,,,-99.99,,2013-06-20 09:02:00,
2013-06-20 05:12:00,50.0,48.0,-100.00,WNW,296,1.0,-999.0,92,-99.99,,,-99.99,,2013-06-20 09:12:00,
2013-06-20 05:22:00,50.0,48.0,-100.00,North,0,0.0,-999.0,94,-99.99,,,-99.99,,2013-06-20 09:22:00,
2013-06-20 05:33:00,49.0,47.0,-100.00,NNE,24,0.0,2.0,91,-99.99,,,-99.99,,2013-06-20 09:33:00,
2013-06-20 05:42:00,50.0,47.0,-100.00,NNE,24,0.0,2.0,91,-99.99,,,-99.99,,2013-06-20 09:42:00,
2013-06-20 05:52:00,50.0,47.0,-100.00,NW,305,0.0,3.0,91,-99.99,,,-99.99,,2013-06-20 09:52:00,
2013-06-20 06:02:00,50.0,47.0,-100.00,North,350,0.0,2.0,91,-99.99,,,-99.99,,2013-06-20 10:02:00,
2013-06-20 06:11:00,51.0,47.0,-100.00,North,350,0.0,3.0,88,-99.99,,,-99.99,,2013-06-20 10:11:00,
2013-06-20 06:22:00,51.0,47.0,-100.00,North,350,0.0,3.0,87,-99.99,,,-99.99,,2013-06-20 10:22:00,
2013-06-20 06:34:00,51.0,48.0,-100.00,NNE,22,0.0,3.0,90,-99.99,,,-99.99,,2013-06-20 10:34:00,
2013-06-20 06:43:00,51.0,48.0,-100.00,NNE,22,0.0,3.0,89,-99.99,,,-99.99,,2013-06-20 10:43:00,
2013-06-20 06:53:00,51.0,47.0,-100.00,NW,308,1.0,3.0,85,-99.99,,,-99.99,,2013-06-20 10:53:00,
2013-06-20 07:02:00,52.0,47.0,-100.00,NW,308,1.0,3.0,83,-99.99,,,-99.99,,2013-06-20 11:02:00,
2013-06-20 07:12:00,53.0,47.0,-100.00,NW,308,1.0,3.0,80,-99.99,,,-99.99,,2013-06-20 11:12:00,
2013-06-20 07:22:00,53.0,47.0,-100.00,NW,308,1.0,3.0,80,-99.99,,,-99.99,,2013-06-20 11:22:00,
2013-06-20 07:34:00,54.0,48.0,-100.00,North,0,1.0,5.0,80,-99.99,,,-99.99,,2013-06-20 11:34:00,
2013-06-20 07:53:00,56.0,49.0,-100.00,NW,306,0.0,5.0,76,-99.99,,,-99.99,,2013-06-20 11:53:00,
2013-06-20 08:02:00,57.0,49.0,-100.00,NW,306,0.0,5.0,74,-99.99,,,-99.99,,2013-06-20 12:02:00,
2013-06-20 08:12:00,58.0,49.0,-100.00,NW,306,0.0,5.0,72,-99.99,,,-99.99,,2013-06-20 12:12:00,
2013-06-20 08:22:00,58.0,49.0,-100.00,NW,306,0.0,5.0,72,-99.99,,,-99.99,,2013-06-20 12:22:00,
2013-06-20 08:34:00,59.0,49.0,-100.00,NW,306,0.0,5.0,69,-99.99,,,-99.99,,2013-06-20 12:34:00,
2013-06-20 08:43:00,60.0,51.0,-100.00,SE,126,1.0,2.0,71,-99.99,,,-99.99,,2013-06-20 12:43:00,
2013-06-20 08:53:00,61.0,51.0,-100.00,SE,126,1.0,2.0,69,-99.99,,,-99.99,,2013-06-20 12:53:00,
2013-06-20 09:02:00,61.0,51.0,-100.00,SE,126,1.0,2.0,69,-99.99,,,-99.99,,2013-06-20 13:02:00,
2013-06-20 09:12:00,63.0,51.0,-100.00,SE,126,1.0,3.0,66,-99.99,,,-99.99,,2013-06-20 13:12:00,
2013-06-20 09:22:00,63.0,51.0,-100.00,SE,126,1.0,3.0,66,-99.99,,,-99.99,,2013-06-20 13:22:00,
2013-06-20 09:33:00,65.0,51.0,-100.00,SE,126,1.0,5.0,62,-99.99,,,-99.99,,2013-06-20 13:33:00,
2013-06-20 09:42:00,67.0,50.0,-100.00,NNW,332,2.0,5.0,55,-99.99,,,-99.99,,2013-06-20 13:42:00,
2013-06-20 09:53:00,68.0,50.0,-100.00,NNW,332,2.0,5.0,53,-99.99,,,-99.99,,2013-06-20 13:53:00,
2013-06-20 10:02:00,69.0,50.0,-100.00,NNW,332,2.0,5.0,51,-99.99,,,-99.99,,2013-06-20 14:02:00,
2013-06-20 10:11:00,69.0,50.0,-100.00,NNW,332,2.0,5.0,51,-99.99,,,-99.99,,2013-06-20 14:11:00,
2013-06-20 10:22:00,69.0,50.0,-100.00,NNW,332,2.0,5.0,51,-99.99,,,-99.99,,2013-06-20 14:22:00,
2013-06-20 10:42:00,71.0,49.0,-100.00,SSE,165,2.0,7.0,46,-99.99,,,-99.99,,2013-06-20 14:42:00,
2013-06-20 10:53:00,72.0,49.0,-100.00,SSE,165,2.0,7.0,45,-99.99,,,-99.99,,2013-06-20 14:53:00,
2013-06-20 11:02:00,71.0,49.0,-100.00,SSE,165,2.0,7.0,46,-99.99,,,-99.99,,2013-06-20 15:02:00,
2013-06-20 11:11:00,72.0,49.0,-100.00,SSE,165,2.0,5.0,44,-99.99,,,-99.99,,2013-06-20 15:11:00,
2013-06-20 11:22:00,72.0,49.0,-100.00,SSE,165,2.0,5.0,44,-99.99,,,-99.99,,2013-06-20 15:22:00,
2013-06-20 11:33:00,73.0,49.0,-100.00,SSE,165,2.0,5.0,43,-99.99,,,-99.99,,2013-06-20 15:33:00,
2013-06-20 11:43:00,74.0,48.0,-100.00,WSW,246,2.0,3.0,40,-99.99,,,-99.99,,2013-06-20 15:43:00,
2013-06-20 11:53:00,75.0,48.0,-100.00,WSW,246,2.0,7.0,39,-99.99,,,-99.99,,2013-06-20 15:53:00,
2013-06-20 12:02:00,74.0,48.0,-100.00,WSW,246,2.0,7.0,40,-99.99,,,-99.99,,2013-06-20 16:02:00,
2013-06-20 12:12:00,74.0,48.0,-100.00,WSW,246,2.0,7.0,40,-99.99,,,-99.99,,2013-06-20 16:12:00,
2013-06-20 12:22:00,74.0,47.0,-100.00,North,0,1.0,8.0,38,-99.99,,,-99.99,,2013-06-20 16:22:00,
2013-06-20 12:33:00,75.0,47.0,-100.00,WSW,256,2.0,8.0,37,-99.99,,,-99.99,,2013-06-20 16:33:00,
2013-06-20 12:43:00,75.0,47.0,-100.00,WSW,256,2.0,8.0,37,-99.99,,,-99.99,,2013-06-20 16:43:00,
2013-06-20 12:52:00,75.0,47.0,-100.00,WSW,256,2.0,8.0,37,-99.99,,,-99.99,,2013-06-20 16:52:00,
2013-06-20 13:02:00,75.0,47.0,-100.00,WSW,256,2.0,10.0,37,-99.99,,,-99.99,,2013-06-20 17:02:00,
2013-06-20 13:12:00,76.0,46.0,-100.00,WSW,240,6.0,9.0,34,-99.99,,,-99.99,,2013-06-20 17:12:00,
2013-06-20 13:22:00,76.0,46.0,-100.00,WSW,240,6.0,10.0,34,-99.99,,,-99.99,,2013-06-20 17:22:00,
2013-06-20 13:33:00,76.0,47.0,-100.00,WSW,242,7.0,12.0,36,-99.99,,,-99.99,,2013-06-20 17:33:00,
2013-06-20 13:43:00,77.0,47.0,-100.00,WSW,242,7.0,9.0,35,-99.99,,,-99.99,,2013-06-20 17:43:00,
2013-06-20 13:50:00,77.0,48.0,-100.00,WSW,254,7.0,17.0,36,-99.99,,,-99.99,,2013-06-20 17:50:00,
2013-06-20 13:53:00,77.0,47.0,-100.00,WSW,242,7.0,10.0,34,-99.99,,,-99.99,,2013-06-20 17:53:00,
2013-06-20 14:01:00,76.0,47.0,-100.00,WSW,242,7.0,10.0,36,-99.99,,,-99.99,,2013-06-20 18:01:00,
2013-06-20 14:12:00,76.0,47.0,-100.00,WSW,242,7.0,8.0,36,-99.99,,,-99.99,,2013-06-20 18:12:00,
2013-06-20 14:22:00,77.0,47.0,-100.00,West,272,6.0,8.0,35,-99.99,,,-99.99,,2013-06-20 18:22:00,
2013-06-20 14:33:00,77.0,48.0,-100.00,WSW,254,7.0,17.0,36,-99.99,,,-99.99,,2013-06-20 18:33:00,
2013-06-20 14:43:00,77.0,48.0,-100.00,WSW,254,7.0,17.0,36,-99.99,,,-99.99,,2013-06-20 18:43:00,